sensor_id;sensor_type;location;lat;lon;timestamp;pressure;altitude;pressure_sealevel;temperature;humidity
5380;BME280;2713;42.680;23.310;2023-02-17T00:00:10;96008.81;;;6.21;56.92
5380;BME280;2713;42.680;23.310;2023-02-17T00:02:38;96007.00;;;6.42;56.04
5380;BME280;2713;42.680;23.310;2023-02-17T00:05:05;96008.91;;;6.40;56.44
5380;BME280;2713;42.680;23.310;2023-02-17T00:07:34;96004.06;;;6.16;57.00
5380;BME280;2713;42.680;23.310;2023-02-17T00:10:01;96012.50;;;6.18;56.74
5380;BME280;2713;42.680;23.310;2023-02-17T00:12:28;96003.84;;;6.29;56.07
5380;BME280;2713;42.680;23.310;2023-02-17T00:14:55;96001.09;;;6.30;56.13
5380;BME280;2713;42.680;23.310;2023-02-17T00:17:22;96008.91;;;6.40;55.94
5380;BME280;2713;42.680;23.310;2023-02-17T00:19:48;96003.69;;;6.30;56.54
5380;BME280;2713;42.680;23.310;2023-02-17T00:22:15;96007.81;;;6.02;57.34
5380;BME280;2713;42.680;23.310;2023-02-17T00:24:43;95988.59;;;6.16;56.63
5380;BME280;2713;42.680;23.310;2023-02-17T00:27:10;96000.66;;;6.16;56.23
5380;BME280;2713;42.680;23.310;2023-02-17T00:29:37;95997.38;;;6.13;56.89
5380;BME280;2713;42.680;23.310;2023-02-17T00:32:04;95961.91;;;5.85;56.49
5380;BME280;2713;42.680;23.310;2023-02-17T00:34:31;95983.25;;;6.08;56.84
5380;BME280;2713;42.680;23.310;2023-02-17T00:36:57;95982.72;;;6.14;55.89
5380;BME280;2713;42.680;23.310;2023-02-17T00:39:24;95976.94;;;6.01;56.72
5380;BME280;2713;42.680;23.310;2023-02-17T00:41:53;95974.41;;;6.10;56.82
5380;BME280;2713;42.680;23.310;2023-02-17T00:44:21;95975.69;;;6.16;56.66
5380;BME280;2713;42.680;23.310;2023-02-17T00:46:50;95971.38;;;6.26;55.91
5380;BME280;2713;42.680;23.310;2023-02-17T00:49:21;95973.00;;;5.97;56.51
5380;BME280;2713;42.680;23.310;2023-02-17T00:51:48;95974.34;;;5.91;56.61
5380;BME280;2713;42.680;23.310;2023-02-17T00:54:16;95983.38;;;5.86;57.49
5380;BME280;2713;42.680;23.310;2023-02-17T00:56:43;95975.19;;;5.81;57.21
5380;BME280;2713;42.680;23.310;2023-02-17T00:59:12;95980.44;;;5.90;56.84
5380;BME280;2713;42.680;23.310;2023-02-17T01:01:39;95984.31;;;5.85;57.55
5380;BME280;2713;42.680;23.310;2023-02-17T01:04:08;95972.13;;;5.87;57.38
5380;BME280;2713;42.680;23.310;2023-02-17T01:06:37;95968.38;;;6.00;56.99
5380;BME280;2713;42.680;23.310;2023-02-17T01:09:11;95967.00;;;5.96;56.71
5380;BME280;2713;42.680;23.310;2023-02-17T01:11:39;95965.34;;;5.44;59.04
5380;BME280;2713;42.680;23.310;2023-02-17T01:14:06;95971.81;;;5.59;58.56
5380;BME280;2713;42.680;23.310;2023-02-17T01:16:36;95978.56;;;5.72;58.01
5380;BME280;2713;42.680;23.310;2023-02-17T01:19:06;95963.75;;;5.74;58.19
5380;BME280;2713;42.680;23.310;2023-02-17T01:21:33;95971.94;;;5.79;58.17
5380;BME280;2713;42.680;23.310;2023-02-17T01:24:03;95967.91;;;5.86;57.18
5380;BME280;2713;42.680;23.310;2023-02-17T01:26:31;95960.66;;;5.80;58.57
5380;BME280;2713;42.680;23.310;2023-02-17T01:29:00;95962.81;;;5.95;56.95
5380;BME280;2713;42.680;23.310;2023-02-17T01:31:27;95956.13;;;5.93;57.92
5380;BME280;2713;42.680;23.310;2023-02-17T01:33:57;95959.72;;;5.81;57.48
5380;BME280;2713;42.680;23.310;2023-02-17T01:36:25;95954.31;;;5.84;57.12
5380;BME280;2713;42.680;23.310;2023-02-17T01:38:53;95946.81;;;5.81;57.54
5380;BME280;2713;42.680;23.310;2023-02-17T01:41:21;95953.13;;;5.88;58.04
5380;BME280;2713;42.680;23.310;2023-02-17T01:44:08;95960.63;;;5.91;57.66
5380;BME280;2713;42.680;23.310;2023-02-17T01:46:37;95950.75;;;5.75;56.87
5380;BME280;2713;42.680;23.310;2023-02-17T01:49:13;95954.63;;;5.49;58.81
5380;BME280;2713;42.680;23.310;2023-02-17T01:51:41;95957.97;;;5.60;58.21
5380;BME280;2713;42.680;23.310;2023-02-17T01:54:12;95957.53;;;5.55;58.71
5380;BME280;2713;42.680;23.310;2023-02-17T01:56:42;95949.06;;;5.65;57.96
5380;BME280;2713;42.680;23.310;2023-02-17T01:59:12;95951.63;;;5.65;58.39
5380;BME280;2713;42.680;23.310;2023-02-17T02:01:41;95957.91;;;5.72;58.14
5380;BME280;2713;42.680;23.310;2023-02-17T02:04:10;95951.19;;;5.39;59.26
5380;BME280;2713;42.680;23.310;2023-02-17T02:06:42;95950.09;;;5.21;59.48
5380;BME280;2713;42.680;23.310;2023-02-17T02:09:15;95951.94;;;5.09;60.43
5380;BME280;2713;42.680;23.310;2023-02-17T02:11:46;95951.16;;;5.18;59.73
5380;BME280;2713;42.680;23.310;2023-02-17T02:14:15;95956.31;;;4.86;60.42
5380;BME280;2713;42.680;23.310;2023-02-17T02:16:49;95952.75;;;4.24;63.01
5380;BME280;2713;42.680;23.310;2023-02-17T02:19:38;95958.91;;;4.43;63.59
5380;BME280;2713;42.680;23.310;2023-02-17T02:22:22;95954.38;;;4.79;61.90
5380;BME280;2713;42.680;23.310;2023-02-17T02:24:58;95946.19;;;5.05;61.04
5380;BME280;2713;42.680;23.310;2023-02-17T02:27:43;95926.41;;;5.06;60.81
5380;BME280;2713;42.680;23.310;2023-02-17T02:33:16;95944.41;;;5.17;60.54
5380;BME280;2713;42.680;23.310;2023-02-17T02:35:52;95952.25;;;5.36;60.24
5380;BME280;2713;42.680;23.310;2023-02-17T02:38:25;95948.59;;;5.39;59.96
5380;BME280;2713;42.680;23.310;2023-02-17T02:41:00;95956.69;;;5.34;59.83
5380;BME280;2713;42.680;23.310;2023-02-17T02:43:29;95944.72;;;5.24;60.08
5380;BME280;2713;42.680;23.310;2023-02-17T02:45:57;95941.00;;;5.37;60.04
5380;BME280;2713;42.680;23.310;2023-02-17T02:48:26;95949.06;;;5.23;59.84
5380;BME280;2713;42.680;23.310;2023-02-17T02:51:08;95945.03;;;5.30;59.37
5380;BME280;2713;42.680;23.310;2023-02-17T03:00:05;95952.19;;;5.47;59.03
5380;BME280;2713;42.680;23.310;2023-02-17T03:02:41;95948.66;;;5.48;59.47
5380;BME280;2713;42.680;23.310;2023-02-17T03:05:15;95942.88;;;5.56;58.35
5380;BME280;2713;42.680;23.310;2023-02-17T03:07:48;95955.50;;;5.59;57.95
5380;BME280;2713;42.680;23.310;2023-02-17T03:10:19;95950.09;;;5.41;59.00
5380;BME280;2713;42.680;23.310;2023-02-17T03:12:45;95953.06;;;5.16;60.10
5380;BME280;2713;42.680;23.310;2023-02-17T03:15:15;95951.44;;;5.15;59.37
5380;BME280;2713;42.680;23.310;2023-02-17T03:17:45;95949.09;;;5.12;59.75
5380;BME280;2713;42.680;23.310;2023-02-17T03:20:14;95949.28;;;4.99;60.18
5380;BME280;2713;42.680;23.310;2023-02-17T03:22:44;95957.50;;;5.14;59.94
5380;BME280;2713;42.680;23.310;2023-02-17T03:25:14;95960.34;;;5.11;60.25
5380;BME280;2713;42.680;23.310;2023-02-17T03:27:42;95956.53;;;5.26;60.17
5380;BME280;2713;42.680;23.310;2023-02-17T03:30:10;95956.31;;;5.18;60.48
5380;BME280;2713;42.680;23.310;2023-02-17T03:32:37;95958.41;;;5.24;60.28
5380;BME280;2713;42.680;23.310;2023-02-17T03:35:04;95953.75;;;5.39;60.19
5380;BME280;2713;42.680;23.310;2023-02-17T03:37:32;95956.22;;;5.40;59.47
5380;BME280;2713;42.680;23.310;2023-02-17T03:39:59;95944.88;;;5.52;59.46
5380;BME280;2713;42.680;23.310;2023-02-17T03:42:26;95949.78;;;5.55;59.68
5380;BME280;2713;42.680;23.310;2023-02-17T03:44:53;95946.72;;;5.41;59.45
5380;BME280;2713;42.680;23.310;2023-02-17T03:47:19;95958.38;;;5.03;60.51
5380;BME280;2713;42.680;23.310;2023-02-17T03:49:46;95965.69;;;5.19;59.82
5380;BME280;2713;42.680;23.310;2023-02-17T03:52:13;95945.75;;;5.21;59.69
5380;BME280;2713;42.680;23.310;2023-02-17T03:54:41;95948.81;;;5.26;60.33
5380;BME280;2713;42.680;23.310;2023-02-17T03:57:08;95942.81;;;5.46;59.95
5380;BME280;2713;42.680;23.310;2023-02-17T03:59:35;95946.22;;;5.47;59.29
5380;BME280;2713;42.680;23.310;2023-02-17T04:02:02;95949.97;;;5.22;60.41
5380;BME280;2713;42.680;23.310;2023-02-17T04:04:29;95958.59;;;5.32;59.85
5380;BME280;2713;42.680;23.310;2023-02-17T04:06:56;95947.41;;;5.22;60.14
5380;BME280;2713;42.680;23.310;2023-02-17T04:09:23;95943.97;;;5.33;60.29
5380;BME280;2713;42.680;23.310;2023-02-17T04:11:51;95942.00;;;5.25;60.70
5380;BME280;2713;42.680;23.310;2023-02-17T04:14:18;95957.22;;;5.28;59.56
5380;BME280;2713;42.680;23.310;2023-02-17T04:16:45;95954.53;;;5.30;60.39
5380;BME280;2713;42.680;23.310;2023-02-17T04:19:11;95949.78;;;5.14;59.99
5380;BME280;2713;42.680;23.310;2023-02-17T04:21:38;95953.38;;;5.23;59.78
5380;BME280;2713;42.680;23.310;2023-02-17T04:24:05;95945.59;;;5.13;59.96
5380;BME280;2713;42.680;23.310;2023-02-17T04:26:32;95946.59;;;5.22;60.69
5380;BME280;2713;42.680;23.310;2023-02-17T04:29:02;95935.31;;;5.02;60.65
5380;BME280;2713;42.680;23.310;2023-02-17T04:31:29;95959.63;;;4.88;61.35
5380;BME280;2713;42.680;23.310;2023-02-17T04:33:56;95954.72;;;5.17;60.16
5380;BME280;2713;42.680;23.310;2023-02-17T04:36:23;95957.81;;;5.21;59.59
5380;BME280;2713;42.680;23.310;2023-02-17T04:38:50;95955.91;;;5.13;60.52
5380;BME280;2713;42.680;23.310;2023-02-17T04:41:17;95951.28;;;4.96;60.13
5380;BME280;2713;42.680;23.310;2023-02-17T04:43:44;95962.31;;;5.19;59.88
5380;BME280;2713;42.680;23.310;2023-02-17T04:46:12;95968.59;;;5.26;59.64
5380;BME280;2713;42.680;23.310;2023-02-17T04:48:39;95952.81;;;5.19;60.68
5380;BME280;2713;42.680;23.310;2023-02-17T04:51:06;95959.50;;;5.10;60.38
5380;BME280;2713;42.680;23.310;2023-02-17T04:53:32;95950.50;;;5.16;60.14
5380;BME280;2713;42.680;23.310;2023-02-17T04:55:59;95958.22;;;5.16;60.37
5380;BME280;2713;42.680;23.310;2023-02-17T04:58:26;95962.75;;;5.24;59.90
5380;BME280;2713;42.680;23.310;2023-02-17T05:00:53;95956.56;;;5.15;59.89
5380;BME280;2713;42.680;23.310;2023-02-17T05:03:21;95961.59;;;4.96;61.05
5380;BME280;2713;42.680;23.310;2023-02-17T05:05:48;95964.78;;;5.20;60.28
5380;BME280;2713;42.680;23.310;2023-02-17T05:08:15;95963.06;;;5.30;59.53
5380;BME280;2713;42.680;23.310;2023-02-17T05:10:42;95951.63;;;5.23;59.97
5380;BME280;2713;42.680;23.310;2023-02-17T05:13:08;95976.41;;;5.03;60.88
5380;BME280;2713;42.680;23.310;2023-02-17T05:15:35;95973.03;;;5.03;61.13
5380;BME280;2713;42.680;23.310;2023-02-17T05:18:02;95982.88;;;4.98;61.16
5380;BME280;2713;42.680;23.310;2023-02-17T05:20:30;95992.81;;;5.02;60.62
5380;BME280;2713;42.680;23.310;2023-02-17T05:22:57;95991.34;;;5.21;60.55
5380;BME280;2713;42.680;23.310;2023-02-17T05:25:24;95980.97;;;5.32;59.75
5380;BME280;2713;42.680;23.310;2023-02-17T05:27:50;95982.97;;;5.28;60.43
5380;BME280;2713;42.680;23.310;2023-02-17T05:30:17;95980.72;;;5.35;60.54
5380;BME280;2713;42.680;23.310;2023-02-17T05:32:45;95993.38;;;5.17;60.46
5380;BME280;2713;42.680;23.310;2023-02-17T05:35:11;95995.13;;;5.17;60.54
5380;BME280;2713;42.680;23.310;2023-02-17T05:37:40;95999.69;;;5.13;61.24
5380;BME280;2713;42.680;23.310;2023-02-17T05:40:07;96011.69;;;5.03;61.17
5380;BME280;2713;42.680;23.310;2023-02-17T05:42:34;96005.78;;;5.12;60.63
5380;BME280;2713;42.680;23.310;2023-02-17T05:45:01;95993.06;;;4.99;61.08
5380;BME280;2713;42.680;23.310;2023-02-17T05:47:28;96010.19;;;5.21;61.04
5380;BME280;2713;42.680;23.310;2023-02-17T05:49:54;96016.00;;;5.34;61.00
5380;BME280;2713;42.680;23.310;2023-02-17T05:52:21;96009.94;;;5.24;61.29
5380;BME280;2713;42.680;23.310;2023-02-17T05:54:49;96019.38;;;5.35;61.10
5380;BME280;2713;42.680;23.310;2023-02-17T05:57:16;96008.94;;;5.47;60.57
5380;BME280;2713;42.680;23.310;2023-02-17T05:59:43;96012.44;;;5.46;60.79
5380;BME280;2713;42.680;23.310;2023-02-17T06:02:10;96019.56;;;5.54;60.21
5380;BME280;2713;42.680;23.310;2023-02-17T06:04:37;96006.72;;;5.43;60.01
5380;BME280;2713;42.680;23.310;2023-02-17T06:07:03;96011.69;;;5.55;60.27
5380;BME280;2713;42.680;23.310;2023-02-17T06:09:30;96013.06;;;5.59;59.47
5380;BME280;2713;42.680;23.310;2023-02-17T06:11:58;96021.00;;;5.68;59.88
5380;BME280;2713;42.680;23.310;2023-02-17T06:14:25;96014.41;;;5.54;60.22
5380;BME280;2713;42.680;23.310;2023-02-17T06:16:52;96019.63;;;5.63;59.80
5380;BME280;2713;42.680;23.310;2023-02-17T06:19:21;96011.13;;;5.73;59.66
5380;BME280;2713;42.680;23.310;2023-02-17T06:21:48;96029.81;;;5.86;59.13
5380;BME280;2713;42.680;23.310;2023-02-17T06:24:15;96029.16;;;5.73;60.15
5380;BME280;2713;42.680;23.310;2023-02-17T06:26:42;96026.22;;;5.77;59.41
5380;BME280;2713;42.680;23.310;2023-02-17T06:29:10;96019.84;;;5.92;59.41
5380;BME280;2713;42.680;23.310;2023-02-17T06:31:37;96018.88;;;5.93;58.59
5380;BME280;2713;42.680;23.310;2023-02-17T06:34:03;96020.88;;;6.10;58.10
5380;BME280;2713;42.680;23.310;2023-02-17T06:36:30;96022.19;;;5.84;58.64
5380;BME280;2713;42.680;23.310;2023-02-17T06:38:57;96027.66;;;6.11;58.78
5380;BME280;2713;42.680;23.310;2023-02-17T06:41:24;96028.16;;;6.26;58.19
5380;BME280;2713;42.680;23.310;2023-02-17T06:43:51;96029.84;;;6.37;58.04
5380;BME280;2713;42.680;23.310;2023-02-17T06:46:19;96031.25;;;6.50;58.36
5380;BME280;2713;42.680;23.310;2023-02-17T06:48:46;96034.13;;;6.57;57.91
5380;BME280;2713;42.680;23.310;2023-02-17T06:51:12;96031.28;;;6.60;57.15
5380;BME280;2713;42.680;23.310;2023-02-17T06:53:39;96031.69;;;6.65;57.09
5380;BME280;2713;42.680;23.310;2023-02-17T06:56:06;96046.41;;;6.44;58.25
5380;BME280;2713;42.680;23.310;2023-02-17T06:58:33;96041.44;;;6.52;56.82
5380;BME280;2713;42.680;23.310;2023-02-17T07:01:01;96045.06;;;6.40;57.49
5380;BME280;2713;42.680;23.310;2023-02-17T07:03:31;96048.81;;;6.26;57.80
5380;BME280;2713;42.680;23.310;2023-02-17T07:05:58;96040.59;;;6.42;57.85
5380;BME280;2713;42.680;23.310;2023-02-17T07:08:25;96042.22;;;6.43;57.83
5380;BME280;2713;42.680;23.310;2023-02-17T07:10:52;96049.00;;;6.13;58.55
5380;BME280;2713;42.680;23.310;2023-02-17T07:13:19;96046.00;;;6.08;58.21
5380;BME280;2713;42.680;23.310;2023-02-17T07:15:46;96041.22;;;6.04;58.40
5380;BME280;2713;42.680;23.310;2023-02-17T07:18:12;96047.56;;;6.00;58.71
5380;BME280;2713;42.680;23.310;2023-02-17T07:20:41;96051.72;;;6.12;59.22
5380;BME280;2713;42.680;23.310;2023-02-17T07:23:07;96050.50;;;6.37;57.94
5380;BME280;2713;42.680;23.310;2023-02-17T07:25:34;96044.91;;;6.41;58.60
5380;BME280;2713;42.680;23.310;2023-02-17T07:28:01;96055.22;;;6.72;57.47
5380;BME280;2713;42.680;23.310;2023-02-17T07:30:28;96044.03;;;7.01;56.64
5380;BME280;2713;42.680;23.310;2023-02-17T07:32:55;96052.25;;;7.45;55.41
5380;BME280;2713;42.680;23.310;2023-02-17T07:35:22;96052.88;;;7.95;54.58
5380;BME280;2713;42.680;23.310;2023-02-17T07:37:50;96053.16;;;8.57;53.08
5380;BME280;2713;42.680;23.310;2023-02-17T07:40:17;96054.41;;;9.08;51.76
5380;BME280;2713;42.680;23.310;2023-02-17T07:42:44;96035.63;;;9.41;49.88
5380;BME280;2713;42.680;23.310;2023-02-17T07:45:12;96052.81;;;9.60;48.92
5380;BME280;2713;42.680;23.310;2023-02-17T07:47:39;96051.16;;;9.77;47.77
5380;BME280;2713;42.680;23.310;2023-02-17T07:50:07;96055.13;;;10.24;47.75
5380;BME280;2713;42.680;23.310;2023-02-17T07:52:34;96040.03;;;10.53;47.03
5380;BME280;2713;42.680;23.310;2023-02-17T07:55:02;96042.44;;;10.81;45.65
5380;BME280;2713;42.680;23.310;2023-02-17T07:57:29;96042.59;;;10.45;46.81
5380;BME280;2713;42.680;23.310;2023-02-17T07:59:56;96047.13;;;11.19;45.33
5380;BME280;2713;42.680;23.310;2023-02-17T08:02:23;96046.19;;;11.36;44.55
5380;BME280;2713;42.680;23.310;2023-02-17T08:04:50;96051.06;;;11.47;44.61
5380;BME280;2713;42.680;23.310;2023-02-17T08:07:17;96041.56;;;11.88;43.89
5380;BME280;2713;42.680;23.310;2023-02-17T08:09:44;96043.66;;;11.93;44.08
5380;BME280;2713;42.680;23.310;2023-02-17T08:12:26;96045.78;;;12.22;43.24
5380;BME280;2713;42.680;23.310;2023-02-17T08:15:11;96041.97;;;12.48;42.58
5380;BME280;2713;42.680;23.310;2023-02-17T08:17:38;96036.94;;;12.39;43.27
5380;BME280;2713;42.680;23.310;2023-02-17T08:20:06;96034.91;;;12.73;42.69
5380;BME280;2713;42.680;23.310;2023-02-17T08:22:33;96029.44;;;12.91;41.82
5380;BME280;2713;42.680;23.310;2023-02-17T08:25:00;96039.34;;;13.11;41.76
5380;BME280;2713;42.680;23.310;2023-02-17T08:27:28;96030.78;;;12.79;41.88
5380;BME280;2713;42.680;23.310;2023-02-17T08:29:55;96037.13;;;13.23;41.11
5380;BME280;2713;42.680;23.310;2023-02-17T08:32:22;96027.53;;;13.24;41.17
5380;BME280;2713;42.680;23.310;2023-02-17T08:34:49;96025.66;;;13.32;40.60
5380;BME280;2713;42.680;23.310;2023-02-17T08:37:16;96021.63;;;13.52;40.37
5380;BME280;2713;42.680;23.310;2023-02-17T08:39:43;96022.19;;;13.40;41.22
5380;BME280;2713;42.680;23.310;2023-02-17T08:42:10;96021.25;;;14.01;40.76
5380;BME280;2713;42.680;23.310;2023-02-17T08:44:38;96018.50;;;14.17;39.45
5380;BME280;2713;42.680;23.310;2023-02-17T08:47:05;96018.47;;;14.40;39.53
5380;BME280;2713;42.680;23.310;2023-02-17T08:49:33;96017.72;;;14.31;38.91
5380;BME280;2713;42.680;23.310;2023-02-17T08:52:00;96016.03;;;14.53;38.71
5380;BME280;2713;42.680;23.310;2023-02-17T08:54:27;96009.25;;;14.73;37.87
5380;BME280;2713;42.680;23.310;2023-02-17T08:56:54;96013.56;;;15.10;37.40
5380;BME280;2713;42.680;23.310;2023-02-17T08:59:23;96006.22;;;15.20;36.33
5380;BME280;2713;42.680;23.310;2023-02-17T09:01:51;96007.59;;;15.52;35.06
5380;BME280;2713;42.680;23.310;2023-02-17T09:04:18;96006.38;;;15.33;32.29
5380;BME280;2713;42.680;23.310;2023-02-17T09:06:46;96002.59;;;14.85;32.31
5380;BME280;2713;42.680;23.310;2023-02-17T09:09:17;96002.03;;;14.90;31.88
5380;BME280;2713;42.680;23.310;2023-02-17T09:11:44;95998.81;;;15.23;31.70
5380;BME280;2713;42.680;23.310;2023-02-17T09:14:11;95998.56;;;15.04;31.35
5380;BME280;2713;42.680;23.310;2023-02-17T09:16:38;95997.16;;;14.87;31.64
5380;BME280;2713;42.680;23.310;2023-02-17T09:19:06;95991.72;;;15.03;31.97
5380;BME280;2713;42.680;23.310;2023-02-17T09:21:33;95992.88;;;15.00;30.87
5380;BME280;2713;42.680;23.310;2023-02-17T09:24:00;95993.22;;;15.27;30.65
5380;BME280;2713;42.680;23.310;2023-02-17T09:26:27;95987.56;;;14.94;30.62
5380;BME280;2713;42.680;23.310;2023-02-17T09:28:54;95996.19;;;14.73;30.80
5380;BME280;2713;42.680;23.310;2023-02-17T09:31:24;96000.63;;;14.73;30.78
5380;BME280;2713;42.680;23.310;2023-02-17T09:33:51;95985.91;;;14.86;31.02
5380;BME280;2713;42.680;23.310;2023-02-17T09:36:22;95994.66;;;14.64;30.77
5380;BME280;2713;42.680;23.310;2023-02-17T09:38:50;95999.47;;;14.23;32.14
5380;BME280;2713;42.680;23.310;2023-02-17T09:41:20;95994.16;;;14.16;31.87
5380;BME280;2713;42.680;23.310;2023-02-17T09:43:48;96006.00;;;14.04;32.15
5380;BME280;2713;42.680;23.310;2023-02-17T09:46:22;95995.34;;;13.91;32.54
5380;BME280;2713;42.680;23.310;2023-02-17T09:48:51;95994.34;;;13.55;32.85
5380;BME280;2713;42.680;23.310;2023-02-17T09:51:25;95994.69;;;13.52;32.68
5380;BME280;2713;42.680;23.310;2023-02-17T09:54:02;95999.53;;;13.63;33.25
5380;BME280;2713;42.680;23.310;2023-02-17T09:56:34;95994.63;;;13.60;33.22
5380;BME280;2713;42.680;23.310;2023-02-17T09:59:06;95992.38;;;13.57;33.07
5380;BME280;2713;42.680;23.310;2023-02-17T10:01:35;95981.53;;;13.45;32.95
5380;BME280;2713;42.680;23.310;2023-02-17T10:04:06;95985.59;;;13.48;33.29
5380;BME280;2713;42.680;23.310;2023-02-17T10:06:39;95983.56;;;13.58;32.57
5380;BME280;2713;42.680;23.310;2023-02-17T10:09:11;95976.06;;;13.55;32.72
5380;BME280;2713;42.680;23.310;2023-02-17T10:11:44;95974.84;;;13.65;32.71
5380;BME280;2713;42.680;23.310;2023-02-17T10:14:16;95971.09;;;13.83;32.31
5380;BME280;2713;42.680;23.310;2023-02-17T10:16:47;95973.38;;;13.86;32.25
5380;BME280;2713;42.680;23.310;2023-02-17T10:19:19;95968.06;;;13.94;31.91
5380;BME280;2713;42.680;23.310;2023-02-17T10:21:56;95957.28;;;13.74;31.56
5380;BME280;2713;42.680;23.310;2023-02-17T10:24:24;95960.44;;;13.69;31.96
5380;BME280;2713;42.680;23.310;2023-02-17T10:27:16;95962.75;;;13.64;31.80
5380;BME280;2713;42.680;23.310;2023-02-17T10:29:50;95953.63;;;13.60;32.34
5380;BME280;2713;42.680;23.310;2023-02-17T10:32:22;95951.50;;;13.64;32.22
5380;BME280;2713;42.680;23.310;2023-02-17T10:35:12;95942.94;;;13.55;32.56
5380;BME280;2713;42.680;23.310;2023-02-17T10:37:45;95944.41;;;13.73;32.22
5380;BME280;2713;42.680;23.310;2023-02-17T10:40:16;95940.09;;;13.80;32.76
5380;BME280;2713;42.680;23.310;2023-02-17T10:42:44;95935.66;;;13.80;32.63
5380;BME280;2713;42.680;23.310;2023-02-17T10:45:17;95938.72;;;13.84;32.41
5380;BME280;2713;42.680;23.310;2023-02-17T10:47:45;95930.22;;;13.90;32.67
5380;BME280;2713;42.680;23.310;2023-02-17T10:50:16;95932.97;;;13.88;32.79
5380;BME280;2713;42.680;23.310;2023-02-17T10:52:46;95927.78;;;14.03;32.43
5380;BME280;2713;42.680;23.310;2023-02-17T10:55:19;95928.03;;;14.08;32.48
5380;BME280;2713;42.680;23.310;2023-02-17T10:57:51;95919.03;;;13.96;31.92
5380;BME280;2713;42.680;23.310;2023-02-17T11:00:19;95920.66;;;13.97;32.63
5380;BME280;2713;42.680;23.310;2023-02-17T11:02:48;95920.56;;;13.90;32.46
5380;BME280;2713;42.680;23.310;2023-02-17T11:05:21;95913.63;;;13.83;32.75
5380;BME280;2713;42.680;23.310;2023-02-17T11:07:54;95925.09;;;13.73;33.06
5380;BME280;2713;42.680;23.310;2023-02-17T11:10:24;95910.91;;;13.76;33.58
5380;BME280;2713;42.680;23.310;2023-02-17T11:12:52;95903.41;;;13.73;32.81
5380;BME280;2713;42.680;23.310;2023-02-17T11:15:25;95906.69;;;13.90;32.48
5380;BME280;2713;42.680;23.310;2023-02-17T11:17:52;95906.88;;;14.03;33.12
5380;BME280;2713;42.680;23.310;2023-02-17T11:20:32;95909.13;;;14.06;32.54
5380;BME280;2713;42.680;23.310;2023-02-17T11:23:07;95899.38;;;14.29;32.51
5380;BME280;2713;42.680;23.310;2023-02-17T11:25:35;95913.31;;;14.44;32.31
5380;BME280;2713;42.680;23.310;2023-02-17T11:28:05;95907.94;;;14.52;32.34
5380;BME280;2713;42.680;23.310;2023-02-17T11:30:33;95908.22;;;14.72;31.90
5380;BME280;2713;42.680;23.310;2023-02-17T11:33:10;95885.63;;;14.86;31.42
5380;BME280;2713;42.680;23.310;2023-02-17T11:35:47;95893.41;;;15.00;31.80
5380;BME280;2713;42.680;23.310;2023-02-17T11:38:17;95899.06;;;15.04;31.08
5380;BME280;2713;42.680;23.310;2023-02-17T11:40:52;95887.50;;;15.13;31.61
5380;BME280;2713;42.680;23.310;2023-02-17T11:43:19;95881.00;;;15.09;31.20
5380;BME280;2713;42.680;23.310;2023-02-17T11:45:53;95890.47;;;15.31;31.19
5380;BME280;2713;42.680;23.310;2023-02-17T11:48:52;95892.84;;;15.47;30.93
5380;BME280;2713;42.680;23.310;2023-02-17T11:51:27;95877.75;;;15.07;31.25
5380;BME280;2713;42.680;23.310;2023-02-17T11:54:06;95883.25;;;15.12;31.19
5380;BME280;2713;42.680;23.310;2023-02-17T11:56:38;95878.34;;;15.02;31.33
5380;BME280;2713;42.680;23.310;2023-02-17T11:59:25;95882.38;;;15.26;31.36
5380;BME280;2713;42.680;23.310;2023-02-17T12:02:10;95867.81;;;15.45;31.29
5380;BME280;2713;42.680;23.310;2023-02-17T12:04:43;95874.34;;;15.49;30.53
5380;BME280;2713;42.680;23.310;2023-02-17T12:07:30;95865.16;;;15.59;30.50
5380;BME280;2713;42.680;23.310;2023-02-17T12:10:10;95866.13;;;15.58;30.61
5380;BME280;2713;42.680;23.310;2023-02-17T12:12:50;95863.59;;;15.65;30.74
5380;BME280;2713;42.680;23.310;2023-02-17T12:15:30;95855.00;;;15.78;31.00
5380;BME280;2713;42.680;23.310;2023-02-17T12:18:09;95852.38;;;16.12;38.37
5380;BME280;2713;42.680;23.310;2023-02-17T12:20:49;95847.50;;;16.43;40.31
5380;BME280;2713;42.680;23.310;2023-02-17T12:23:35;95842.34;;;16.69;35.11
5380;BME280;2713;42.680;23.310;2023-02-17T12:26:14;95834.09;;;16.25;32.38
5380;BME280;2713;42.680;23.310;2023-02-17T12:28:59;95839.22;;;16.46;34.51
5380;BME280;2713;42.680;23.310;2023-02-17T12:31:44;95836.72;;;16.72;38.13
5380;BME280;2713;42.680;23.310;2023-02-17T12:34:20;95826.47;;;17.04;39.89
5380;BME280;2713;42.680;23.310;2023-02-17T12:36:50;95825.81;;;16.82;30.54
5380;BME280;2713;42.680;23.310;2023-02-17T12:39:21;95799.75;;;16.74;39.68
5380;BME280;2713;42.680;23.310;2023-02-17T12:41:55;95813.94;;;16.99;35.90
5380;BME280;2713;42.680;23.310;2023-02-17T12:44:27;95806.88;;;17.00;31.95
5380;BME280;2713;42.680;23.310;2023-02-17T12:46:58;95814.50;;;16.82;31.77
5380;BME280;2713;42.680;23.310;2023-02-17T12:49:29;95809.53;;;16.46;30.57
5380;BME280;2713;42.680;23.310;2023-02-17T12:52:05;95811.31;;;16.32;30.54
5380;BME280;2713;42.680;23.310;2023-02-17T12:54:39;95812.31;;;16.31;30.93
5380;BME280;2713;42.680;23.310;2023-02-17T12:57:13;95801.19;;;16.22;31.31
5380;BME280;2713;42.680;23.310;2023-02-17T12:59:42;95793.78;;;15.92;31.43
5380;BME280;2713;42.680;23.310;2023-02-17T13:02:11;95803.84;;;15.88;31.94
5380;BME280;2713;42.680;23.310;2023-02-17T13:04:39;95803.84;;;15.88;31.01
5380;BME280;2713;42.680;23.310;2023-02-17T13:07:17;95800.81;;;15.85;31.67
5380;BME280;2713;42.680;23.310;2023-02-17T13:09:47;95799.31;;;15.76;32.36
5380;BME280;2713;42.680;23.310;2023-02-17T13:12:36;95799.38;;;16.23;38.41
5380;BME280;2713;42.680;23.310;2023-02-17T13:15:09;95803.56;;;16.17;33.77
5380;BME280;2713;42.680;23.310;2023-02-17T13:17:53;95795.06;;;16.02;31.86
5380;BME280;2713;42.680;23.310;2023-02-17T13:20:25;95794.19;;;15.89;32.19
5380;BME280;2713;42.680;23.310;2023-02-17T13:23:04;95796.94;;;15.81;30.56
5380;BME280;2713;42.680;23.310;2023-02-17T13:25:34;95797.16;;;15.86;31.42
5380;BME280;2713;42.680;23.310;2023-02-17T13:28:16;95801.41;;;15.87;30.84
5380;BME280;2713;42.680;23.310;2023-02-17T13:30:45;95787.28;;;15.81;30.44
5380;BME280;2713;42.680;23.310;2023-02-17T13:33:27;95799.13;;;15.77;30.56
5380;BME280;2713;42.680;23.310;2023-02-17T13:35:54;95785.38;;;15.68;30.28
5380;BME280;2713;42.680;23.310;2023-02-17T13:38:26;95786.38;;;15.67;29.75
5380;BME280;2713;42.680;23.310;2023-02-17T13:40:57;95791.22;;;15.64;30.34